Time;durP1;ratioP1;P1;durP2;ratioP2;P2;SDS_P1;SDS_P2;PMS_P1;PMS_P2;Temp;Humidity;BMP_temperature;BMP_pressure;BME280_temperature;BME280_humidity;BME280_pressure;Samples;Min_cycle;Max_cycle;Signal;HPM_P1;HPM_P2
2020/12/01 00:03:54;;;;;;;74.53;27.17;;;0.10;99.90;;;;;;10354110;28;20056;-64
2020/12/01 00:08:55;;;;;;;78.15;26.60;;;0.10;99.90;;;;;;10345738;28;20469;-64
2020/12/01 00:13:56;;;;;;;77.18;26.02;;;0.10;99.90;;;;;;10343781;28;20061;-64
2020/12/01 00:18:59;;;;;;;83.95;27.65;;;0.10;99.90;;;;;;10347989;28;20405;-64
2020/12/01 00:24:01;;;;;;;73.50;26.60;;;0.10;99.90;;;;;;10345345;28;20424;-64
2020/12/01 00:29:03;;;;;;;84.00;28.27;;;0.10;99.90;;;;;;10344167;28;20054;-64
2020/12/01 00:34:07;;;;;;;94.35;26.40;;;0.00;99.90;;;;;;10352975;28;20052;-64
2020/12/01 00:39:09;;;;;;;84.07;26.42;;;0.00;99.90;;;;;;10343532;28;20053;-64
2020/12/01 00:44:10;;;;;;;87.68;25.83;;;0.10;99.90;;;;;;10342370;28;20065;-64
2020/12/01 00:49:12;;;;;;;93.13;27.50;;;0.10;99.90;;;;;;10343160;28;20049;-64
2020/12/01 00:54:13;;;;;;;90.25;25.67;;;0.10;99.90;;;;;;10339527;28;20045;-64
2020/12/01 00:59:14;;;;;;;94.18;26.15;;;0.10;99.90;;;;;;10352633;28;20509;-64
2020/12/01 01:04:16;;;;;;;98.20;26.25;;;0.10;99.90;;;;;;10350890;28;20055;-64
2020/12/01 01:09:18;;;;;;;100.38;27.73;;;0.10;99.90;;;;;;10350902;28;20034;-64
2020/12/01 01:14:19;;;;;;;89.75;26.40;;;0.20;99.90;;;;;;10344454;28;20065;-64
2020/12/01 01:19:20;;;;;;;96.55;26.45;;;0.20;99.90;;;;;;10343386;28;20057;-64
2020/12/01 01:24:23;;;;;;;97.28;26.27;;;0.20;99.90;;;;;;10350302;28;20485;-64
2020/12/01 01:29:24;;;;;;;115.35;27.67;;;0.20;99.90;;;;;;10349837;28;20046;-64
2020/12/01 01:34:25;;;;;;;102.55;27.05;;;0.20;99.90;;;;;;10339058;28;20460;-64
2020/12/01 01:39:26;;;;;;;99.70;27.83;;;0.30;99.90;;;;;;10342302;28;20121;-64
2020/12/01 01:44:30;;;;;;;90.20;26.15;;;0.30;99.90;;;;;;10350633;28;20045;-65
2020/12/01 01:49:40;;;;;;;116.68;29.58;;;0.30;99.90;;;;;;10354507;28;20042;-64
2020/12/01 01:54:44;;;;;;;101.18;25.63;;;0.30;99.90;;;;;;10347535;28;20104;-64
2020/12/01 01:59:49;;;;;;;103.65;27.33;;;0.30;99.90;;;;;;10347874;28;20486;-64
2020/12/01 02:04:50;;;;;;;96.25;26.70;;;0.30;99.90;;;;;;10341352;28;20054;-62
2020/12/01 02:09:55;;;;;;;99.18;26.40;;;0.30;99.90;;;;;;10339847;28;20077;-63
2020/12/01 02:15:04;;;;;;;92.18;24.50;;;0.40;99.90;;;;;;10343752;28;20065;-63
2020/12/01 02:20:13;;;;;;;83.22;24.23;;;0.40;99.90;;;;;;10337396;28;20132;-62
2020/12/01 02:25:17;;;;;;;83.03;24.52;;;0.40;99.90;;;;;;10339960;28;20045;-63
2020/12/01 02:30:19;;;;;;;81.30;25.30;;;0.40;99.90;;;;;;10347219;28;20042;-62
2020/12/01 02:35:20;;;;;;;73.30;23.63;;;0.50;99.90;;;;;;10342732;28;20484;-62
2020/12/01 02:40:22;;;;;;;72.40;23.33;;;0.50;99.90;;;;;;10347320;28;20056;-62
2020/12/01 02:45:23;;;;;;;78.90;25.67;;;0.50;99.90;;;;;;10349436;28;20042;-62
2020/12/01 02:50:24;;;;;;;78.28;25.40;;;0.50;99.90;;;;;;10346668;28;20566;-63
2020/12/01 02:55:38;;;;;;;74.03;23.67;;;0.50;99.90;;;;;;10349303;28;20054;-63
2020/12/01 03:00:43;;;;;;;76.10;24.70;;;0.60;99.90;;;;;;10351202;28;20054;-63
2020/12/01 03:05:45;;;;;;;70.97;22.95;;;0.50;99.90;;;;;;10351879;28;20053;-63
2020/12/01 03:10:46;;;;;;;69.13;23.17;;;0.50;99.90;;;;;;10350072;28;20057;-64
2020/12/01 03:15:47;;;;;;;70.40;21.50;;;0.50;99.90;;;;;;10333774;28;20057;-64
2020/12/01 03:20:49;;;;;;;74.60;24.35;;;0.50;99.90;;;;;;10348507;28;20706;-64
2020/12/01 03:25:50;;;;;;;71.18;22.50;;;0.50;99.90;;;;;;10353922;28;20065;-64
2020/12/01 03:30:52;;;;;;;76.75;23.40;;;0.50;99.90;;;;;;10351051;28;20393;-64
2020/12/01 03:35:53;;;;;;;70.10;24.05;;;0.50;99.90;;;;;;10349006;28;20400;-64
2020/12/01 03:40:54;;;;;;;72.45;23.88;;;0.50;99.90;;;;;;10350211;28;20572;-64
2020/12/01 03:45:56;;;;;;;77.70;24.25;;;0.50;99.90;;;;;;10348489;28;20042;-64
2020/12/01 03:50:57;;;;;;;79.13;24.73;;;0.50;99.90;;;;;;10352117;28;20038;-64
2020/12/01 03:55:58;;;;;;;70.78;23.77;;;0.60;99.90;;;;;;10351181;28;20504;-64
2020/12/01 04:01:00;;;;;;;69.65;24.08;;;0.50;99.90;;;;;;10344142;28;20053;-64
2020/12/01 04:06:03;;;;;;;66.43;23.95;;;0.60;99.90;;;;;;10352564;28;20140;-65
2020/12/01 04:11:05;;;;;;;71.53;23.58;;;0.60;99.90;;;;;;10354269;28;20060;-64
2020/12/01 04:16:06;;;;;;;61.13;21.05;;;0.60;99.90;;;;;;10354092;28;20053;-65
2020/12/01 04:21:07;;;;;;;65.00;22.45;;;0.60;99.90;;;;;;10350099;28;20068;-64
2020/12/01 04:26:09;;;;;;;62.95;23.05;;;0.60;99.90;;;;;;10344646;28;20485;-64
2020/12/01 04:31:10;;;;;;;66.10;22.85;;;0.60;99.90;;;;;;10353723;28;20050;-63
2020/12/01 04:36:11;;;;;;;65.95;21.80;;;0.60;99.90;;;;;;10356808;28;20540;-63
2020/12/01 04:41:14;;;;;;;70.35;23.73;;;0.60;99.90;;;;;;10357364;28;20054;-63
2020/12/01 04:46:20;;;;;;;57.25;22.02;;;0.60;99.90;;;;;;10354895;28;20057;-63
2020/12/01 04:51:38;;;;;;;60.60;21.08;;;0.60;99.90;;;;;;10353260;28;20072;-63
2020/12/01 04:56:59;;;;;;;58.95;22.65;;;0.60;99.90;;;;;;10354958;28;20046;-63
2020/12/01 05:02:21;;;;;;;62.58;22.20;;;0.60;99.90;;;;;;10357452;28;20042;-64
2020/12/01 05:07:44;;;;;;;62.83;21.13;;;0.70;99.90;;;;;;10304574;28;20077;-64
2020/12/01 05:12:58;;;;;;;61.60;23.23;;;0.70;99.90;;;;;;10354312;28;20104;-64
2020/12/01 05:18:09;;;;;;;59.92;23.50;;;0.70;99.90;;;;;;10361111;28;20473;-65
2020/12/01 05:23:11;;;;;;;64.88;23.17;;;0.80;99.90;;;;;;10358467;28;20108;-65
2020/12/01 05:28:17;;;;;;;64.53;23.67;;;0.80;99.90;;;;;;10357968;28;20554;-65
2020/12/01 05:33:24;;;;;;;62.22;22.52;;;0.80;99.90;;;;;;10358172;28;20045;-65
2020/12/01 05:38:41;;;;;;;67.97;23.48;;;0.80;99.90;;;;;;10349452;28;20057;-64
2020/12/01 05:43:44;;;;;;;68.63;23.10;;;0.80;99.90;;;;;;10354982;28;20050;-65
2020/12/01 05:49:02;;;;;;;64.78;26.60;;;0.90;99.90;;;;;;10356158;28;20057;-66
2020/12/01 05:54:04;;;;;;;68.63;23.90;;;0.90;99.90;;;;;;10351800;28;20483;-65
2020/12/01 05:59:14;;;;;;;67.05;24.58;;;0.80;99.90;;;;;;10351702;28;20049;-65
2020/12/01 06:04:24;;;;;;;70.40;24.92;;;0.90;99.90;;;;;;10338148;28;20069;-65
2020/12/01 06:10:02;;;;;;;82.93;26.63;;;0.80;99.90;;;;;;10322334;28;20060;-65
2020/12/01 06:15:10;;;;;;;74.10;25.63;;;0.80;99.90;;;;;;10259408;28;20053;-65
2020/12/01 06:20:28;;;;;;;73.18;25.92;;;0.80;99.90;;;;;;10317591;28;20051;-65
2020/12/01 06:25:45;;;;;;;79.13;25.67;;;0.80;99.90;;;;;;10335134;28;20054;-65
2020/12/01 06:31:21;;;;;;;75.68;24.02;;;0.80;99.90;;;;;;10336454;28;20291;-65
2020/12/01 06:36:58;;;;;;;78.32;26.45;;;0.80;99.90;;;;;;10285636;28;20587;-64
2020/12/01 06:42:13;;;;;;;69.40;23.95;;;0.90;99.90;;;;;;10275475;28;20960;-64
2020/12/01 06:47:14;;;;;;;76.70;23.55;;;0.90;99.90;;;;;;10335341;28;20682;-63
2020/12/01 06:52:15;;;;;;;74.65;24.13;;;0.90;99.90;;;;;;10340524;28;20386;-63
2020/12/01 06:57:35;;;;;;;83.45;26.17;;;0.90;99.90;;;;;;10333508;28;20424;-62
2020/12/01 07:02:39;;;;;;;77.80;24.65;;;0.90;99.90;;;;;;10334358;28;20053;-62
2020/12/01 07:07:47;;;;;;;66.38;23.25;;;0.90;99.90;;;;;;10332284;28;20046;-62
2020/12/01 07:12:54;;;;;;;67.95;23.27;;;0.90;99.90;;;;;;10331651;28;20476;-62
2020/12/01 07:18:21;;;;;;;71.30;24.30;;;1.00;99.90;;;;;;10330123;28;20057;-62
2020/12/01 07:23:32;;;;;;;69.50;24.70;;;1.00;99.90;;;;;;10293296;28;20045;-62
2020/12/01 07:28:39;;;;;;;64.50;25.25;;;1.00;99.90;;;;;;10339333;28;20053;-63
2020/12/01 07:33:50;;;;;;;58.58;21.77;;;1.00;99.90;;;;;;10332559;28;20048;-63
2020/12/01 07:39:17;;;;;;;61.28;22.55;;;1.00;99.90;;;;;;10331623;28;20046;-63
2020/12/01 07:44:30;;;;;;;63.60;24.40;;;1.00;99.90;;;;;;10280658;28;20536;-63
2020/12/01 07:49:34;;;;;;;64.47;22.52;;;1.10;99.90;;;;;;10330256;28;20053;-63
2020/12/01 07:54:39;;;;;;;61.13;23.35;;;1.10;99.90;;;;;;10329387;28;20050;-67
2020/12/01 07:59:45;;;;;;;55.03;21.15;;;1.10;99.90;;;;;;10329009;28;20400;-62
2020/12/01 08:04:56;;;;;;;63.42;24.13;;;1.10;99.90;;;;;;10333331;28;20093;-63
2020/12/01 08:10:06;;;;;;;57.05;21.60;;;1.10;99.90;;;;;;10331445;28;20094;-63
2020/12/01 08:15:14;;;;;;;52.13;22.42;;;1.10;99.90;;;;;;10336397;28;20051;-63
2020/12/01 08:20:24;;;;;;;62.72;23.10;;;1.20;99.90;;;;;;10331458;28;20696;-63
2020/12/01 08:25:29;;;;;;;47.78;19.95;;;1.30;99.90;;;;;;10333781;28;20072;-63
2020/12/01 08:30:53;;;;;;;49.35;20.02;;;1.30;99.90;;;;;;10331837;28;20073;-63
2020/12/01 08:36:12;;;;;;;54.38;23.20;;;1.30;99.90;;;;;;10266184;28;20104;-62
2020/12/01 08:41:53;;;;;;;53.83;20.75;;;1.30;99.90;;;;;;10329404;28;20448;-62
2020/12/01 08:46:55;;;;;;;51.25;20.85;;;1.40;99.90;;;;;;10272683;28;20497;-62
2020/12/01 08:52:02;;;;;;;57.15;21.80;;;1.40;99.90;;;;;;10332424;28;20045;-63
2020/12/01 08:57:19;;;;;;;44.10;16.38;;;1.40;99.90;;;;;;10332071;28;20045;-63
2020/12/01 09:02:21;;;;;;;59.85;23.85;;;1.40;99.90;;;;;;10284110;28;20188;-63
2020/12/01 09:07:26;;;;;;;61.13;23.08;;;1.40;99.90;;;;;;10328700;28;20115;-64
2020/12/01 09:13:05;;;;;;;79.65;24.88;;;1.40;99.90;;;;;;10306759;28;20061;-64
2020/12/01 09:23:24;;;;;;;55.88;22.90;;;1.40;99.90;;;;;;10334798;28;20326;-63
2020/12/01 09:28:31;;;;;;;48.78;22.10;;;1.40;99.90;;;;;;10287095;28;20111;-63
2020/12/01 09:33:33;;;;;;;57.20;24.00;;;1.70;99.90;;;;;;10335669;28;20068;-63
2020/12/01 09:38:37;;;;;;;54.35;23.63;;;1.70;99.90;;;;;;10335326;28;20489;-64
2020/12/01 09:43:52;;;;;;;52.75;21.65;;;1.60;99.90;;;;;;10318197;28;20069;-64
2020/12/01 09:48:53;;;;;;;48.72;22.42;;;1.70;99.90;;;;;;10285584;28;20042;-64
2020/12/01 09:54:18;;;;;;;52.08;20.88;;;1.70;99.90;;;;;;10335161;28;20544;-63
2020/12/01 09:59:30;;;;;;;50.75;22.15;;;1.60;99.90;;;;;;10333871;28;20412;-63
2020/12/01 10:20:52;;;;;;;43.75;20.83;;;1.80;99.90;;;;;;10332123;28;20133;-63
2020/12/01 10:26:21;;;;;;;51.20;23.05;;;1.80;99.90;;;;;;10333922;28;20116;-62
2020/12/01 10:36:29;;;;;;;52.08;21.45;;;1.90;99.90;;;;;;10283451;28;20050;-62
2020/12/01 10:41:32;;;;;;;47.15;20.73;;;2.10;99.90;;;;;;10312624;28;20406;-63
2020/12/01 10:46:33;;;;;;;49.38;21.60;;;2.20;99.90;;;;;;10326810;28;20057;-63
2020/12/01 10:51:35;;;;;;;50.70;22.55;;;2.10;99.90;;;;;;10326695;28;20060;-64
2020/12/01 10:56:36;;;;;;;51.83;22.17;;;2.20;99.90;;;;;;10325818;28;20543;-64
2020/12/01 11:01:38;;;;;;;47.83;21.35;;;2.30;99.90;;;;;;10326904;28;20486;-64
2020/12/01 11:06:39;;;;;;;49.80;21.85;;;2.40;99.90;;;;;;10330812;28;20634;-63
2020/12/01 11:11:41;;;;;;;49.95;21.95;;;2.40;99.90;;;;;;10326741;28;20038;-63
2020/12/01 11:16:42;;;;;;;48.17;22.35;;;2.50;99.90;;;;;;10326286;28;20701;-63
2020/12/01 11:21:44;;;;;;;44.08;20.42;;;2.50;99.90;;;;;;10331091;28;20041;-64
2020/12/01 11:26:45;;;;;;;46.40;21.45;;;2.40;99.90;;;;;;10332239;28;20064;-63
2020/12/01 11:31:46;;;;;;;53.42;22.25;;;2.50;99.90;;;;;;10329421;28;20065;-63
2020/12/01 11:36:48;;;;;;;53.10;23.05;;;2.40;99.90;;;;;;10332304;28;20076;-63
2020/12/01 11:41:49;;;;;;;60.03;24.25;;;2.50;99.90;;;;;;10330489;28;20041;-63
2020/12/01 11:46:51;;;;;;;62.00;24.17;;;2.40;99.90;;;;;;10338213;28;20111;-63
2020/12/01 11:51:52;;;;;;;52.25;22.85;;;2.30;99.90;;;;;;10335765;28;20077;-64
2020/12/01 11:56:53;;;;;;;57.38;24.85;;;2.30;99.90;;;;;;10331843;28;20057;-64
2020/12/01 12:01:55;;;;;;;74.88;25.85;;;2.30;99.90;;;;;;10330005;28;20401;-64
2020/12/01 12:06:56;;;;;;;63.50;26.17;;;2.40;99.90;;;;;;10326700;28;20049;-64
2020/12/01 12:11:57;;;;;;;60.95;23.88;;;2.50;99.90;;;;;;10331223;28;20500;-64
2020/12/01 12:16:59;;;;;;;70.13;22.02;;;2.40;99.90;;;;;;10331584;28;20061;-64
2020/12/01 12:22:00;;;;;;;68.90;25.00;;;2.40;99.90;;;;;;10330054;28;20052;-64
2020/12/01 12:27:01;;;;;;;62.28;24.15;;;2.30;99.90;;;;;;10331530;28;20123;-65
2020/12/01 12:32:02;;;;;;;58.28;22.70;;;2.30;99.90;;;;;;10330249;28;20052;-65
2020/12/01 12:37:04;;;;;;;59.10;24.92;;;2.40;99.90;;;;;;10327823;28;20104;-65
2020/12/01 12:42:05;;;;;;;64.68;25.77;;;2.40;99.90;;;;;;10330523;28;20058;-65
2020/12/01 12:47:06;;;;;;;58.97;25.20;;;2.30;99.90;;;;;;10328401;28;20061;-64
2020/12/01 12:52:08;;;;;;;61.72;24.75;;;2.30;99.90;;;;;;10331939;28;20057;-64
2020/12/01 12:57:09;;;;;;;59.97;25.75;;;2.20;99.90;;;;;;10336104;28;20057;-65
2020/12/01 13:02:10;;;;;;;70.85;25.60;;;2.30;99.90;;;;;;10340355;28;20053;-65
2020/12/01 13:07:12;;;;;;;53.10;23.27;;;2.40;99.90;;;;;;10338464;28;20041;-65
2020/12/01 13:12:13;;;;;;;64.15;23.80;;;2.40;99.90;;;;;;10338097;28;20049;-66
2020/12/01 13:17:14;;;;;;;59.70;23.73;;;2.30;99.90;;;;;;10338356;28;20080;-65
2020/12/01 13:22:15;;;;;;;63.92;23.85;;;2.30;99.90;;;;;;10338936;28;20061;-66
2020/12/01 13:27:17;;;;;;;58.83;22.63;;;2.40;99.90;;;;;;10345509;28;20049;-66
2020/12/01 13:32:18;;;;;;;65.97;23.60;;;2.40;99.90;;;;;;10334800;28;20046;-64
2020/12/01 13:37:19;;;;;;;53.67;21.30;;;2.40;99.90;;;;;;10335352;28;20516;-65
2020/12/01 13:42:21;;;;;;;59.75;21.10;;;2.40;99.90;;;;;;10335038;28;20042;-66
2020/12/01 13:47:22;;;;;;;66.68;22.80;;;2.40;99.90;;;;;;10334576;28;20094;-65
2020/12/01 13:52:23;;;;;;;61.80;24.33;;;2.40;99.90;;;;;;10331669;28;20064;-64
2020/12/01 13:57:24;;;;;;;54.60;22.23;;;2.40;99.90;;;;;;10330279;28;20463;-64
2020/12/01 14:02:26;;;;;;;60.17;22.30;;;2.50;99.90;;;;;;10328296;28;20431;-64
2020/12/01 14:07:27;;;;;;;63.65;23.38;;;2.40;99.90;;;;;;10336043;28;20061;-65
2020/12/01 14:12:28;;;;;;;68.05;24.13;;;2.30;99.90;;;;;;10332367;28;20543;-65
2020/12/01 14:17:29;;;;;;;63.15;23.73;;;2.30;99.90;;;;;;10332892;28;20053;-65
2020/12/01 14:22:31;;;;;;;62.17;25.05;;;2.30;99.90;;;;;;10333011;28;20041;-65
2020/12/01 14:27:32;;;;;;;58.70;23.20;;;2.30;99.90;;;;;;10315950;28;20485;-64
2020/12/01 14:32:34;;;;;;;64.85;24.45;;;2.30;99.90;;;;;;10331927;28;20057;-64
2020/12/01 14:37:35;;;;;;;66.63;25.20;;;2.30;99.90;;;;;;10332393;28;20046;-65
2020/12/01 14:42:40;;;;;;;58.58;22.77;;;2.40;99.90;;;;;;10333639;28;20610;-64
2020/12/01 14:48:03;;;;;;;61.13;23.25;;;2.50;99.90;;;;;;10333734;28;20571;-65
2020/12/01 14:53:25;;;;;;;69.40;24.40;;;2.50;99.90;;;;;;10241119;28;20054;-64
2020/12/01 14:58:58;;;;;;;71.45;25.38;;;3.50;99.90;;;;;;10251579;28;20058;-64
2020/12/01 15:04:17;;;;;;;57.53;22.83;;;2.60;99.90;;;;;;10234020;28;20052;-64
2020/12/01 15:09:36;;;;;;;72.35;26.05;;;2.50;99.90;;;;;;10326585;28;20417;-66
2020/12/01 15:14:37;;;;;;;69.85;24.65;;;2.50;99.90;;;;;;10332703;28;20746;-65
2020/12/01 15:19:39;;;;;;;63.92;23.92;;;2.50;99.90;;;;;;10334078;28;20064;-65
2020/12/01 15:24:41;;;;;;;78.82;27.73;;;2.50;99.90;;;;;;10331908;28;20350;-64
2020/12/01 15:29:44;;;;;;;76.40;29.27;;;2.40;99.90;;;;;;10312458;28;20053;-63
2020/12/01 15:34:48;;;;;;;64.72;22.92;;;2.40;99.90;;;;;;10339269;28;20493;-63
2020/12/01 15:39:50;;;;;;;55.67;22.00;;;2.40;99.90;;;;;;10331922;28;20053;-63
2020/12/01 15:44:55;;;;;;;56.67;21.38;;;2.30;99.90;;;;;;10331165;28;20049;-63
2020/12/01 15:49:56;;;;;;;63.33;24.50;;;2.30;99.90;;;;;;10332498;28;20501;-63
2020/12/01 15:55:28;;;;;;;76.72;25.67;;;2.40;99.90;;;;;;10335119;28;20088;-65
2020/12/01 16:00:50;;;;;;;70.20;26.70;;;2.40;99.90;;;;;;10277295;28;20066;-66
2020/12/01 16:06:50;;;;;;;74.53;25.90;;;2.40;99.90;;;;;;10325988;28;20075;-66
2020/12/01 16:12:09;;;;;;;77.53;28.00;;;2.40;99.90;;;;;;10099266;28;21086;-66
2020/12/01 16:17:43;;;;;;;74.78;28.25;;;2.40;99.90;;;;;;10317276;28;20046;-66
2020/12/01 16:22:44;;;;;;;67.15;25.27;;;2.40;99.90;;;;;;10255756;28;20108;-66
2020/12/01 16:28:04;;;;;;;73.30;24.58;;;2.40;99.90;;;;;;10333436;28;20053;-66
2020/12/01 16:33:10;;;;;;;84.15;27.55;;;2.30;99.90;;;;;;10330541;28;20060;-66
2020/12/01 16:38:54;;;;;;;84.60;28.20;;;2.30;99.90;;;;;;10278200;28;20058;-66
2020/12/01 16:44:34;;;;;;;84.90;30.65;;;2.30;99.90;;;;;;10245120;28;20056;-66
2020/12/01 16:50:02;;;;;;;88.07;28.80;;;2.30;99.90;;;;;;10284655;28;20053;-65
2020/12/01 16:55:22;;;;;;;92.35;32.88;;;2.30;99.90;;;;;;10268539;28;20038;-65
2020/12/01 17:00:41;;;;;;;89.32;32.78;;;2.30;99.90;;;;;;10278623;28;20752;-66
2020/12/01 17:05:45;;;;;;;90.40;33.63;;;2.30;99.90;;;;;;10332546;28;20058;-66
2020/12/01 17:10:49;;;;;;;96.95;32.47;;;2.30;99.90;;;;;;10286916;28;20544;-65
2020/12/01 17:16:05;;;;;;;117.07;35.40;;;2.30;99.90;;;;;;10245390;28;20560;-65
2020/12/01 17:21:10;;;;;;;104.95;34.88;;;2.30;99.90;;;;;;10327693;28;20049;-66
2020/12/01 17:26:19;;;;;;;105.18;30.70;;;2.30;99.90;;;;;;10329504;28;20034;-67
2020/12/01 17:31:43;;;;;;;105.05;29.63;;;2.40;99.90;;;;;;10309872;28;20085;-66
2020/12/01 17:36:55;;;;;;;120.30;31.27;;;2.40;99.90;;;;;;10275175;28;20132;-65
2020/12/01 17:42:29;;;;;;;110.85;29.23;;;2.30;99.90;;;;;;10332991;28;20081;-64
2020/12/01 17:47:40;;;;;;;117.43;30.38;;;2.30;99.90;;;;;;10335236;28;20049;-66
2020/12/01 17:53:14;;;;;;;135.80;43.33;;;2.30;99.90;;;;;;10337479;28;20661;-67
2020/12/01 17:58:18;;;;;;;126.45;30.35;;;2.30;99.90;;;;;;10252329;28;20120;-66
2020/12/01 18:03:22;;;;;;;108.05;29.23;;;2.30;99.90;;;;;;10333351;28;20539;-67
2020/12/01 18:08:28;;;;;;;104.32;27.40;;;2.30;99.90;;;;;;10329805;28;20486;-66
2020/12/01 18:13:31;;;;;;;97.55;26.90;;;2.30;99.90;;;;;;10334907;28;20093;-65
2020/12/01 18:18:40;;;;;;;104.85;31.60;;;2.30;99.90;;;;;;10333789;28;20057;-66
2020/12/01 18:24:10;;;;;;;130.07;30.98;;;2.30;99.90;;;;;;10336516;28;20061;-65
2020/12/01 18:29:28;;;;;;;182.80;35.28;;;2.30;99.90;;;;;;10293059;28;20060;-66
2020/12/01 18:34:58;;;;;;;172.55;33.58;;;2.30;99.90;;;;;;10314980;28;20089;-66
2020/12/01 18:40:02;;;;;;;242.38;35.33;;;2.20;99.90;;;;;;10331422;28;20200;-65
2020/12/01 18:45:18;;;;;;;321.10;38.03;;;2.10;99.90;;;;;;10331930;28;20054;-65
2020/12/01 18:50:20;;;;;;;299.33;41.55;;;2.10;99.90;;;;;;10328019;28;20133;-65
2020/12/01 18:55:21;;;;;;;318.45;41.15;;;2.00;99.90;;;;;;10316068;28;20111;-65
2020/12/01 19:00:22;;;;;;;340.15;43.40;;;2.10;99.90;;;;;;10332465;28;20057;-64
2020/12/01 19:05:24;;;;;;;227.02;37.45;;;2.00;99.90;;;;;;10331839;28;20524;-65
2020/12/01 19:10:26;;;;;;;194.18;34.13;;;2.10;99.90;;;;;;10332989;28;20144;-64
2020/12/01 19:15:27;;;;;;;206.35;34.25;;;2.10;99.90;;;;;;10338663;28;20046;-65
2020/12/01 19:20:29;;;;;;;286.17;39.80;;;2.10;99.90;;;;;;10331039;28;20080;-65
2020/12/01 19:25:30;;;;;;;241.07;39.97;;;2.10;99.90;;;;;;10343130;28;20049;-65
2020/12/01 19:30:32;;;;;;;323.10;44.67;;;2.10;99.90;;;;;;10347747;28;20041;-65
2020/12/01 19:35:35;;;;;;;250.95;42.45;;;2.00;99.90;;;;;;10327953;28;20495;-65
2020/12/01 19:40:38;;;;;;;257.52;40.97;;;2.00;99.90;;;;;;10342342;28;20045;-65
2020/12/01 19:45:39;;;;;;;225.23;36.60;;;2.10;99.90;;;;;;10342016;28;20068;-66
2020/12/01 19:50:41;;;;;;;355.48;42.10;;;2.20;99.90;;;;;;10333902;28;20041;-65
2020/12/01 19:55:42;;;;;;;205.27;40.08;;;2.20;99.90;;;;;;10331367;28;20499;-66
2020/12/01 20:00:43;;;;;;;210.02;43.33;;;2.20;99.90;;;;;;10328936;28;20198;-64
2020/12/01 20:05:45;;;;;;;220.35;36.88;;;2.20;99.90;;;;;;10328632;28;20049;-64
2020/12/01 20:10:46;;;;;;;147.35;29.95;;;2.20;99.90;;;;;;10326737;28;20053;-64
2020/12/01 20:15:47;;;;;;;151.90;33.13;;;2.20;99.90;;;;;;10329352;28;20042;-64
2020/12/01 20:20:48;;;;;;;151.68;31.13;;;2.20;99.90;;;;;;10327924;28;20539;-64
2020/12/01 20:26:01;;;;;;;123.80;28.52;;;2.20;99.90;;;;;;10326939;28;20879;-64
2020/12/01 20:31:04;;;;;;;137.23;30.52;;;2.20;99.90;;;;;;10326240;28;20060;-64
2020/12/01 20:36:05;;;;;;;136.75;34.90;;;2.20;99.90;;;;;;10338279;28;20165;-64
2020/12/01 20:41:07;;;;;;;122.15;29.17;;;2.20;99.90;;;;;;10327313;28;20085;-64
2020/12/01 20:46:09;;;;;;;113.45;26.23;;;2.20;99.90;;;;;;10326213;28;20539;-64
2020/12/01 20:51:11;;;;;;;107.88;27.35;;;2.20;99.90;;;;;;10325622;28;20121;-64
2020/12/01 20:56:14;;;;;;;107.93;26.20;;;2.20;99.90;;;;;;10326832;28;20052;-64
2020/12/01 21:01:15;;;;;;;103.10;26.13;;;2.20;99.90;;;;;;10345986;28;20492;-64
2020/12/01 21:06:17;;;;;;;98.25;26.75;;;2.10;99.90;;;;;;10358102;28;20057;-63
2020/12/01 21:11:28;;;;;;;108.95;27.58;;;2.10;99.90;;;;;;10337003;28;20046;-65
2020/12/01 21:16:29;;;;;;;94.32;27.58;;;2.20;99.90;;;;;;10353860;28;20508;-65
2020/12/01 21:21:30;;;;;;;110.68;27.63;;;2.20;99.90;;;;;;10325906;28;20049;-64
2020/12/01 21:26:38;;;;;;;89.55;23.60;;;2.20;99.90;;;;;;10343649;28;20580;-65
2020/12/01 21:31:42;;;;;;;83.75;23.15;;;2.10;99.90;;;;;;10342252;28;20038;-65
2020/12/01 21:36:44;;;;;;;78.70;23.60;;;2.10;99.90;;;;;;10341563;28;20054;-65
2020/12/01 21:41:53;;;;;;;81.45;23.92;;;2.20;99.90;;;;;;10340807;28;20045;-65
2020/12/01 21:46:54;;;;;;;81.78;24.52;;;2.20;99.90;;;;;;10342431;28;20512;-64
2020/12/01 21:52:26;;;;;;;79.22;24.70;;;2.20;99.90;;;;;;10350714;28;20204;-65
2020/12/01 21:57:46;;;;;;;85.82;24.73;;;2.20;99.90;;;;;;10353980;28;20046;-65
2020/12/01 22:03:21;;;;;;;92.68;28.95;;;2.20;99.90;;;;;;10350892;28;20115;-64
2020/12/01 22:08:37;;;;;;;79.38;28.08;;;2.20;99.90;;;;;;10293878;28;20050;-64
2020/12/01 22:13:58;;;;;;;82.43;26.55;;;2.20;99.90;;;;;;10296459;28;20700;-65
2020/12/01 22:19:02;;;;;;;88.03;24.08;;;2.10;99.90;;;;;;10344657;28;20070;-65
2020/12/01 22:24:09;;;;;;;80.13;21.83;;;2.10;99.90;;;;;;10341945;28;20046;-65
2020/12/01 22:29:31;;;;;;;56.53;17.53;;;2.10;99.90;;;;;;10344753;28;20046;-64
2020/12/01 22:35:03;;;;;;;75.45;23.17;;;2.10;99.90;;;;;;10332443;28;20299;-64
2020/12/01 22:40:06;;;;;;;69.47;23.40;;;2.10;99.90;;;;;;10350215;28;20698;-65
2020/12/01 22:45:18;;;;;;;76.00;23.48;;;2.10;99.90;;;;;;10341821;28;21085;-64
2020/12/01 22:50:44;;;;;;;70.43;22.17;;;2.10;99.90;;;;;;10331445;28;20056;-64
2020/12/01 22:56:07;;;;;;;74.32;23.00;;;2.10;99.90;;;;;;10259392;28;20062;-64
2020/12/01 23:01:12;;;;;;;77.05;23.73;;;2.10;99.90;;;;;;10252966;28;20042;-64
2020/12/01 23:06:13;;;;;;;77.72;22.95;;;2.10;99.90;;;;;;10329944;28;20064;-64
2020/12/01 23:11:20;;;;;;;84.75;23.17;;;2.10;99.90;;;;;;10331207;28;20073;-64
2020/12/01 23:16:28;;;;;;;81.28;24.20;;;2.10;99.90;;;;;;10331657;28;20140;-64
2020/12/01 23:21:33;;;;;;;81.75;23.65;;;2.20;99.90;;;;;;10327835;28;20049;-64
2020/12/01 23:26:43;;;;;;;73.78;21.73;;;2.20;99.90;;;;;;10331577;28;20073;-64
2020/12/01 23:31:47;;;;;;;60.45;20.08;;;2.10;99.90;;;;;;10328621;28;20049;-64
2020/12/01 23:36:51;;;;;;;73.50;22.85;;;2.20;99.90;;;;;;10326160;28;20077;-64
2020/12/01 23:41:57;;;;;;;70.22;21.05;;;2.20;99.90;;;;;;10329738;28;20053;-65
2020/12/01 23:47:16;;;;;;;60.05;20.35;;;2.20;99.90;;;;;;10329998;28;20053;-64
2020/12/01 23:52:29;;;;;;;62.50;19.73;;;2.10;99.90;;;;;;10328391;28;20060;-63
2020/12/01 23:57:32;;;;;;;53.10;19.05;;;2.20;99.90;;;;;;10324831;28;20061;-64
